sensor_id;sensor_type;location;lat;lon;timestamp;pressure;altitude;pressure_sealevel;temperature
10598;BMP180;5346;48.766;8.674;2022-07-23T00:02:16;94272.00;;;22.80
10598;BMP180;5346;48.766;8.674;2022-07-23T00:04:51;94265.00;;;22.60
10598;BMP180;5346;48.766;8.674;2022-07-23T00:07:25;94261.00;;;22.60
10598;BMP180;5346;48.766;8.674;2022-07-23T00:09:53;94268.00;;;22.70
10598;BMP180;5346;48.766;8.674;2022-07-23T00:12:21;94263.00;;;22.80
10598;BMP180;5346;48.766;8.674;2022-07-23T00:14:59;94253.00;;;22.60
10598;BMP180;5346;48.766;8.674;2022-07-23T00:17:27;94258.00;;;22.50
10598;BMP180;5346;48.766;8.674;2022-07-23T00:19:54;94254.00;;;22.60
10598;BMP180;5346;48.766;8.674;2022-07-23T00:22:29;94263.00;;;22.60
10598;BMP180;5346;48.766;8.674;2022-07-23T00:24:57;94266.00;;;22.70
10598;BMP180;5346;48.766;8.674;2022-07-23T00:27:44;94263.00;;;22.50
10598;BMP180;5346;48.766;8.674;2022-07-23T00:30:18;94248.00;;;22.50
10598;BMP180;5346;48.766;8.674;2022-07-23T00:32:52;94242.00;;;22.50
10598;BMP180;5346;48.766;8.674;2022-07-23T00:35:28;94237.00;;;22.50
10598;BMP180;5346;48.766;8.674;2022-07-23T00:37:57;94244.00;;;22.30
10598;BMP180;5346;48.766;8.674;2022-07-23T00:40:26;94239.00;;;22.50
10598;BMP180;5346;48.766;8.674;2022-07-23T00:43:01;94239.00;;;22.30
10598;BMP180;5346;48.766;8.674;2022-07-23T00:45:29;94236.00;;;22.30
10598;BMP180;5346;48.766;8.674;2022-07-23T00:47:57;94237.00;;;22.10
10598;BMP180;5346;48.766;8.674;2022-07-23T00:50:30;94234.00;;;22.20
10598;BMP180;5346;48.766;8.674;2022-07-23T00:52:59;94243.00;;;22.20
10598;BMP180;5346;48.766;8.674;2022-07-23T00:55:27;94240.00;;;22.20
10598;BMP180;5346;48.766;8.674;2022-07-23T00:58:02;94225.00;;;22.00
10598;BMP180;5346;48.766;8.674;2022-07-23T01:00:30;94220.00;;;22.10
10598;BMP180;5346;48.766;8.674;2022-07-23T01:02:58;94226.00;;;22.10
10598;BMP180;5346;48.766;8.674;2022-07-23T01:05:38;94227.00;;;22.10
10598;BMP180;5346;48.766;8.674;2022-07-23T01:08:06;94236.00;;;22.00
10598;BMP180;5346;48.766;8.674;2022-07-23T01:10:40;94220.00;;;21.90
10598;BMP180;5346;48.766;8.674;2022-07-23T01:13:10;94203.00;;;21.80
10598;BMP180;5346;48.766;8.674;2022-07-23T01:15:38;94202.00;;;21.60
10598;BMP180;5346;48.766;8.674;2022-07-23T01:18:12;94187.00;;;21.70
10598;BMP180;5346;48.766;8.674;2022-07-23T01:20:40;94181.00;;;21.70
10598;BMP180;5346;48.766;8.674;2022-07-23T01:23:08;94187.00;;;21.60
10598;BMP180;5346;48.766;8.674;2022-07-23T01:26:02;94187.00;;;21.50
10598;BMP180;5346;48.766;8.674;2022-07-23T01:28:29;94186.00;;;21.60
10598;BMP180;5346;48.766;8.674;2022-07-23T01:31:03;94197.00;;;21.30
10598;BMP180;5346;48.766;8.674;2022-07-23T01:33:31;94197.00;;;21.20
10598;BMP180;5346;48.766;8.674;2022-07-23T01:35:59;94191.00;;;21.10
10598;BMP180;5346;48.766;8.674;2022-07-23T01:38:32;94177.00;;;21.10
10598;BMP180;5346;48.766;8.674;2022-07-23T01:41:00;94189.00;;;21.00
10598;BMP180;5346;48.766;8.674;2022-07-23T01:43:28;94183.00;;;20.90
10598;BMP180;5346;48.766;8.674;2022-07-23T01:46:02;94183.00;;;20.80
10598;BMP180;5346;48.766;8.674;2022-07-23T01:48:30;94193.00;;;20.80
10598;BMP180;5346;48.766;8.674;2022-07-23T01:50:58;94198.00;;;20.80
10598;BMP180;5346;48.766;8.674;2022-07-23T01:53:31;94215.00;;;20.80
10598;BMP180;5346;48.766;8.674;2022-07-23T01:56:00;94213.00;;;20.80
10598;BMP180;5346;48.766;8.674;2022-07-23T01:58:28;94218.00;;;20.70
10598;BMP180;5346;48.766;8.674;2022-07-23T02:01:01;94217.00;;;20.70
10598;BMP180;5346;48.766;8.674;2022-07-23T02:03:36;94222.00;;;20.70
10598;BMP180;5346;48.766;8.674;2022-07-23T02:06:17;94214.00;;;20.60
10598;BMP180;5346;48.766;8.674;2022-07-23T02:08:45;94222.00;;;20.50
10598;BMP180;5346;48.766;8.674;2022-07-23T02:11:12;94227.00;;;20.60
10598;BMP180;5346;48.766;8.674;2022-07-23T02:13:46;94236.00;;;20.70
10598;BMP180;5346;48.766;8.674;2022-07-23T02:16:14;94245.00;;;20.70
10598;BMP180;5346;48.766;8.674;2022-07-23T02:18:41;94256.00;;;20.50
10598;BMP180;5346;48.766;8.674;2022-07-23T02:21:17;94269.00;;;20.40
10598;BMP180;5346;48.766;8.674;2022-07-23T02:23:44;94268.00;;;20.20
10598;BMP180;5346;48.766;8.674;2022-07-23T02:26:12;94272.00;;;20.30
10598;BMP180;5346;48.766;8.674;2022-07-23T02:28:47;94271.00;;;20.10
10598;BMP180;5346;48.766;8.674;2022-07-23T02:31:14;94275.00;;;19.90
10598;BMP180;5346;48.766;8.674;2022-07-23T02:33:42;94279.00;;;19.90
10598;BMP180;5346;48.766;8.674;2022-07-23T02:36:15;94287.00;;;20.00
10598;BMP180;5346;48.766;8.674;2022-07-23T02:38:43;94284.00;;;20.00
10598;BMP180;5346;48.766;8.674;2022-07-23T02:41:10;94303.00;;;19.90
10598;BMP180;5346;48.766;8.674;2022-07-23T02:43:44;94307.00;;;20.00
10598;BMP180;5346;48.766;8.674;2022-07-23T02:46:12;94312.00;;;19.90
10598;BMP180;5346;48.766;8.674;2022-07-23T02:48:40;94320.00;;;19.80
10598;BMP180;5346;48.766;8.674;2022-07-23T02:51:15;94320.00;;;19.70
10598;BMP180;5346;48.766;8.674;2022-07-23T02:53:42;94318.00;;;19.70
10598;BMP180;5346;48.766;8.674;2022-07-23T02:56:10;94327.00;;;19.70
10598;BMP180;5346;48.766;8.674;2022-07-23T02:58:44;94328.00;;;19.60
10598;BMP180;5346;48.766;8.674;2022-07-23T03:01:11;94314.00;;;19.60
10598;BMP180;5346;48.766;8.674;2022-07-23T03:03:39;94317.00;;;19.60
10598;BMP180;5346;48.766;8.674;2022-07-23T03:06:20;94313.00;;;19.60
10598;BMP180;5346;48.766;8.674;2022-07-23T03:08:48;94316.00;;;19.60
10598;BMP180;5346;48.766;8.674;2022-07-23T03:11:23;94311.00;;;19.60
10598;BMP180;5346;48.766;8.674;2022-07-23T03:13:51;94303.00;;;19.60
10598;BMP180;5346;48.766;8.674;2022-07-23T03:16:19;94297.00;;;19.50
10598;BMP180;5346;48.766;8.674;2022-07-23T03:18:53;94292.00;;;19.60
10598;BMP180;5346;48.766;8.674;2022-07-23T03:21:20;94293.00;;;19.40
10598;BMP180;5346;48.766;8.674;2022-07-23T03:23:48;94302.00;;;19.20
10598;BMP180;5346;48.766;8.674;2022-07-23T03:26:22;94302.00;;;19.20
10598;BMP180;5346;48.766;8.674;2022-07-23T03:28:58;94305.00;;;19.20
10598;BMP180;5346;48.766;8.674;2022-07-23T03:31:35;94304.00;;;19.30
10598;BMP180;5346;48.766;8.674;2022-07-23T03:34:03;94304.00;;;19.30
10598;BMP180;5346;48.766;8.674;2022-07-23T03:36:30;94306.00;;;19.30
10598;BMP180;5346;48.766;8.674;2022-07-23T03:39:05;94307.00;;;19.30
10598;BMP180;5346;48.766;8.674;2022-07-23T03:41:38;94296.00;;;19.20
10598;BMP180;5346;48.766;8.674;2022-07-23T03:44:13;94301.00;;;19.20
10598;BMP180;5346;48.766;8.674;2022-07-23T03:46:40;94298.00;;;19.10
10598;BMP180;5346;48.766;8.674;2022-07-23T03:49:08;94303.00;;;19.10
10598;BMP180;5346;48.766;8.674;2022-07-23T03:51:42;94307.00;;;19.10
10598;BMP180;5346;48.766;8.674;2022-07-23T03:54:10;94313.00;;;19.00
10598;BMP180;5346;48.766;8.674;2022-07-23T03:56:37;94315.00;;;18.90
10598;BMP180;5346;48.766;8.674;2022-07-23T03:59:12;94319.00;;;18.90
10598;BMP180;5346;48.766;8.674;2022-07-23T04:01:39;94313.00;;;18.90
10598;BMP180;5346;48.766;8.674;2022-07-23T04:04:07;94311.00;;;18.90
10598;BMP180;5346;48.766;8.674;2022-07-23T04:06:42;94319.00;;;18.90
10598;BMP180;5346;48.766;8.674;2022-07-23T04:09:17;94317.00;;;18.90
10598;BMP180;5346;48.766;8.674;2022-07-23T04:11:51;94308.00;;;19.00
10598;BMP180;5346;48.766;8.674;2022-07-23T04:14:18;94312.00;;;19.10
10598;BMP180;5346;48.766;8.674;2022-07-23T04:16:46;94311.00;;;19.10
10598;BMP180;5346;48.766;8.674;2022-07-23T04:19:20;94313.00;;;19.20
10598;BMP180;5346;48.766;8.674;2022-07-23T04:21:47;94305.00;;;19.30
10598;BMP180;5346;48.766;8.674;2022-07-23T04:24:15;94303.00;;;19.40
10598;BMP180;5346;48.766;8.674;2022-07-23T04:26:58;94315.00;;;19.40
10598;BMP180;5346;48.766;8.674;2022-07-23T04:29:26;94314.00;;;19.40
10598;BMP180;5346;48.766;8.674;2022-07-23T04:32:00;94318.00;;;19.50
10598;BMP180;5346;48.766;8.674;2022-07-23T04:34:28;94313.00;;;19.40
10598;BMP180;5346;48.766;8.674;2022-07-23T04:36:56;94313.00;;;19.70
10598;BMP180;5346;48.766;8.674;2022-07-23T04:39:31;94315.00;;;19.70
10598;BMP180;5346;48.766;8.674;2022-07-23T04:41:58;94319.00;;;19.50
10598;BMP180;5346;48.766;8.674;2022-07-23T04:44:26;94321.00;;;19.80
10598;BMP180;5346;48.766;8.674;2022-07-23T04:47:00;94317.00;;;20.00
10598;BMP180;5346;48.766;8.674;2022-07-23T04:49:29;94314.00;;;20.10
10598;BMP180;5346;48.766;8.674;2022-07-23T04:51:57;94316.00;;;20.20
10598;BMP180;5346;48.766;8.674;2022-07-23T04:54:31;94312.00;;;20.30
10598;BMP180;5346;48.766;8.674;2022-07-23T04:56:58;94301.00;;;20.30
10598;BMP180;5346;48.766;8.674;2022-07-23T04:59:26;94311.00;;;20.30
10598;BMP180;5346;48.766;8.674;2022-07-23T05:02:01;94299.00;;;20.30
10598;BMP180;5346;48.766;8.674;2022-07-23T05:04:35;94317.00;;;20.50
10598;BMP180;5346;48.766;8.674;2022-07-23T05:07:09;94309.00;;;20.50
10598;BMP180;5346;48.766;8.674;2022-07-23T05:09:36;94300.00;;;20.60
10598;BMP180;5346;48.766;8.674;2022-07-23T05:12:04;94310.00;;;20.70
10598;BMP180;5346;48.766;8.674;2022-07-23T05:14:38;94312.00;;;20.60
10598;BMP180;5346;48.766;8.674;2022-07-23T05:17:05;94319.00;;;20.70
10598;BMP180;5346;48.766;8.674;2022-07-23T05:19:35;94309.00;;;20.80
10598;BMP180;5346;48.766;8.674;2022-07-23T05:22:10;94317.00;;;20.80
10598;BMP180;5346;48.766;8.674;2022-07-23T05:24:37;94324.00;;;20.70
10598;BMP180;5346;48.766;8.674;2022-07-23T05:27:05;94321.00;;;20.80
10598;BMP180;5346;48.766;8.674;2022-07-23T05:29:39;94325.00;;;20.80
10598;BMP180;5346;48.766;8.674;2022-07-23T05:32:07;94328.00;;;20.70
10598;BMP180;5346;48.766;8.674;2022-07-23T05:34:34;94336.00;;;20.70
10598;BMP180;5346;48.766;8.674;2022-07-23T05:37:09;94332.00;;;20.70
10598;BMP180;5346;48.766;8.674;2022-07-23T05:39:36;94327.00;;;20.80
10598;BMP180;5346;48.766;8.674;2022-07-23T05:42:04;94320.00;;;20.90
10598;BMP180;5346;48.766;8.674;2022-07-23T05:44:41;94321.00;;;21.00
10598;BMP180;5346;48.766;8.674;2022-07-23T05:47:09;94321.00;;;21.20
10598;BMP180;5346;48.766;8.674;2022-07-23T05:49:37;94321.00;;;21.40
10598;BMP180;5346;48.766;8.674;2022-07-23T05:52:13;94333.00;;;21.50
10598;BMP180;5346;48.766;8.674;2022-07-23T05:54:40;94323.00;;;21.70
10598;BMP180;5346;48.766;8.674;2022-07-23T05:57:09;94305.00;;;21.70
10598;BMP180;5346;48.766;8.674;2022-07-23T05:59:49;94303.00;;;21.80
10598;BMP180;5346;48.766;8.674;2022-07-23T06:02:16;94327.00;;;22.00
10598;BMP180;5346;48.766;8.674;2022-07-23T06:04:51;94333.00;;;22.50
10598;BMP180;5346;48.766;8.674;2022-07-23T06:07:25;94327.00;;;22.90
10598;BMP180;5346;48.766;8.674;2022-07-23T06:10:00;94335.00;;;23.10
10598;BMP180;5346;48.766;8.674;2022-07-23T06:12:28;94353.00;;;23.10
10598;BMP180;5346;48.766;8.674;2022-07-23T06:14:55;94355.00;;;23.00
10598;BMP180;5346;48.766;8.674;2022-07-23T06:17:29;94368.00;;;22.80
10598;BMP180;5346;48.766;8.674;2022-07-23T06:19:57;94372.00;;;22.40
10598;BMP180;5346;48.766;8.674;2022-07-23T06:22:24;94381.00;;;22.30
10598;BMP180;5346;48.766;8.674;2022-07-23T06:24:58;94395.00;;;22.10
10598;BMP180;5346;48.766;8.674;2022-07-23T06:27:25;94405.00;;;21.70
10598;BMP180;5346;48.766;8.674;2022-07-23T06:29:53;94416.00;;;21.40
10598;BMP180;5346;48.766;8.674;2022-07-23T06:32:28;94421.00;;;21.00
10598;BMP180;5346;48.766;8.674;2022-07-23T06:34:56;94438.00;;;20.60
10598;BMP180;5346;48.766;8.674;2022-07-23T06:37:23;94428.00;;;19.70
10598;BMP180;5346;48.766;8.674;2022-07-23T06:39:57;94427.00;;;19.00
10598;BMP180;5346;48.766;8.674;2022-07-23T06:42:25;94421.00;;;18.60
10598;BMP180;5346;48.766;8.674;2022-07-23T06:44:53;94402.00;;;18.20
10598;BMP180;5346;48.766;8.674;2022-07-23T06:47:27;94407.00;;;18.00
10598;BMP180;5346;48.766;8.674;2022-07-23T06:49:54;94388.00;;;17.80
10598;BMP180;5346;48.766;8.674;2022-07-23T06:52:22;94411.00;;;17.60
10598;BMP180;5346;48.766;8.674;2022-07-23T06:54:56;94413.00;;;17.70
10598;BMP180;5346;48.766;8.674;2022-07-23T06:57:24;94415.00;;;17.80
10598;BMP180;5346;48.766;8.674;2022-07-23T06:59:54;94414.00;;;17.90
10598;BMP180;5346;48.766;8.674;2022-07-23T07:02:28;94405.00;;;17.90
10598;BMP180;5346;48.766;8.674;2022-07-23T07:05:03;94420.00;;;18.40
10598;BMP180;5346;48.766;8.674;2022-07-23T07:07:44;94423.00;;;18.50
10598;BMP180;5346;48.766;8.674;2022-07-23T07:10:12;94423.00;;;18.30
10598;BMP180;5346;48.766;8.674;2022-07-23T07:12:42;94418.00;;;18.60
10598;BMP180;5346;48.766;8.674;2022-07-23T07:15:16;94411.00;;;18.60
10598;BMP180;5346;48.766;8.674;2022-07-23T07:17:43;94416.00;;;18.70
10598;BMP180;5346;48.766;8.674;2022-07-23T07:20:11;94414.00;;;18.90
10598;BMP180;5346;48.766;8.674;2022-07-23T07:22:46;94434.00;;;18.90
10598;BMP180;5346;48.766;8.674;2022-07-23T07:25:14;94446.00;;;18.80
10598;BMP180;5346;48.766;8.674;2022-07-23T07:27:43;94439.00;;;18.60
10598;BMP180;5346;48.766;8.674;2022-07-23T07:30:18;94439.00;;;18.60
10598;BMP180;5346;48.766;8.674;2022-07-23T07:32:45;94432.00;;;18.50
10598;BMP180;5346;48.766;8.674;2022-07-23T07:35:27;94436.00;;;18.70
10598;BMP180;5346;48.766;8.674;2022-07-23T07:37:58;94435.00;;;18.80
10598;BMP180;5346;48.766;8.674;2022-07-23T07:40:26;94417.00;;;18.80
10598;BMP180;5346;48.766;8.674;2022-07-23T07:43:02;94421.00;;;19.50
10598;BMP180;5346;48.766;8.674;2022-07-23T07:45:31;94411.00;;;19.80
10598;BMP180;5346;48.766;8.674;2022-07-23T07:47:59;94423.00;;;20.70
10598;BMP180;5346;48.766;8.674;2022-07-23T07:50:33;94401.00;;;21.10
10598;BMP180;5346;48.766;8.674;2022-07-23T07:53:01;94416.00;;;21.20
10598;BMP180;5346;48.766;8.674;2022-07-23T07:55:29;94417.00;;;21.30
10598;BMP180;5346;48.766;8.674;2022-07-23T07:58:04;94409.00;;;21.20
10598;BMP180;5346;48.766;8.674;2022-07-23T08:00:32;94409.00;;;21.40
10598;BMP180;5346;48.766;8.674;2022-07-23T08:03:00;94408.00;;;21.40
10598;BMP180;5346;48.766;8.674;2022-07-23T08:05:42;94409.00;;;21.50
10598;BMP180;5346;48.766;8.674;2022-07-23T08:08:10;94409.00;;;21.70
10598;BMP180;5346;48.766;8.674;2022-07-23T08:10:48;94420.00;;;22.00
10598;BMP180;5346;48.766;8.674;2022-07-23T08:13:16;94421.00;;;22.10
10598;BMP180;5346;48.766;8.674;2022-07-23T08:15:44;94421.00;;;22.50
10598;BMP180;5346;48.766;8.674;2022-07-23T08:18:19;94417.00;;;22.80
10598;BMP180;5346;48.766;8.674;2022-07-23T08:20:47;94408.00;;;22.90
10598;BMP180;5346;48.766;8.674;2022-07-23T08:23:14;94427.00;;;22.80
10598;BMP180;5346;48.766;8.674;2022-07-23T08:25:56;94418.00;;;22.80
10598;BMP180;5346;48.766;8.674;2022-07-23T08:28:24;94435.00;;;22.60
10598;BMP180;5346;48.766;8.674;2022-07-23T08:30:52;94439.00;;;22.40
10598;BMP180;5346;48.766;8.674;2022-07-23T08:33:26;94434.00;;;21.90
10598;BMP180;5346;48.766;8.674;2022-07-23T08:36:02;94429.00;;;21.70
10598;BMP180;5346;48.766;8.674;2022-07-23T08:38:37;94433.00;;;21.70
10598;BMP180;5346;48.766;8.674;2022-07-23T08:41:07;94439.00;;;21.80
10598;BMP180;5346;48.766;8.674;2022-07-23T08:43:35;94442.00;;;21.70
10598;BMP180;5346;48.766;8.674;2022-07-23T08:46:09;94425.00;;;21.90
10598;BMP180;5346;48.766;8.674;2022-07-23T08:48:38;94422.00;;;22.90
10598;BMP180;5346;48.766;8.674;2022-07-23T08:51:07;94427.00;;;23.80
10598;BMP180;5346;48.766;8.674;2022-07-23T08:53:42;94419.00;;;24.20
10598;BMP180;5346;48.766;8.674;2022-07-23T08:56:10;94422.00;;;24.40
10598;BMP180;5346;48.766;8.674;2022-07-23T08:58:38;94422.00;;;24.50
10598;BMP180;5346;48.766;8.674;2022-07-23T09:01:12;94412.00;;;24.50
10598;BMP180;5346;48.766;8.674;2022-07-23T09:03:41;94426.00;;;24.50
10598;BMP180;5346;48.766;8.674;2022-07-23T09:06:29;94424.00;;;24.60
10598;BMP180;5346;48.766;8.674;2022-07-23T09:08:56;94424.00;;;24.90
10598;BMP180;5346;48.766;8.674;2022-07-23T09:11:30;94427.00;;;25.10
10598;BMP180;5346;48.766;8.674;2022-07-23T09:13:58;94424.00;;;25.00
10598;BMP180;5346;48.766;8.674;2022-07-23T09:16:31;94436.00;;;24.30
10598;BMP180;5346;48.766;8.674;2022-07-23T09:19:06;94422.00;;;23.80
10598;BMP180;5346;48.766;8.674;2022-07-23T09:21:39;94426.00;;;24.00
10598;BMP180;5346;48.766;8.674;2022-07-23T09:24:13;94414.00;;;24.40
10598;BMP180;5346;48.766;8.674;2022-07-23T09:26:46;94421.00;;;24.90
10598;BMP180;5346;48.766;8.674;2022-07-23T09:29:25;94419.00;;;25.00
10598;BMP180;5346;48.766;8.674;2022-07-23T09:32:00;94419.00;;;25.10
10598;BMP180;5346;48.766;8.674;2022-07-23T09:34:36;94413.00;;;25.60
10598;BMP180;5346;48.766;8.674;2022-07-23T09:37:15;94419.00;;;25.40
10598;BMP180;5346;48.766;8.674;2022-07-23T09:39:49;94420.00;;;25.60
10598;BMP180;5346;48.766;8.674;2022-07-23T09:42:22;94424.00;;;25.90
10598;BMP180;5346;48.766;8.674;2022-07-23T09:44:59;94421.00;;;26.30
10598;BMP180;5346;48.766;8.674;2022-07-23T09:47:31;94421.00;;;25.80
10598;BMP180;5346;48.766;8.674;2022-07-23T09:50:07;94422.00;;;25.80
10598;BMP180;5346;48.766;8.674;2022-07-23T09:52:43;94434.00;;;25.80
10598;BMP180;5346;48.766;8.674;2022-07-23T09:55:19;94432.00;;;25.10
10598;BMP180;5346;48.766;8.674;2022-07-23T09:58:00;94439.00;;;25.60
10598;BMP180;5346;48.766;8.674;2022-07-23T10:00:34;94429.00;;;26.00
10598;BMP180;5346;48.766;8.674;2022-07-23T10:03:03;94426.00;;;26.40
10598;BMP180;5346;48.766;8.674;2022-07-23T10:05:33;94432.00;;;26.70
10598;BMP180;5346;48.766;8.674;2022-07-23T10:08:12;94423.00;;;26.80
10598;BMP180;5346;48.766;8.674;2022-07-23T10:10:40;94427.00;;;27.00
10598;BMP180;5346;48.766;8.674;2022-07-23T10:13:08;94429.00;;;26.80
10598;BMP180;5346;48.766;8.674;2022-07-23T10:16:02;94429.00;;;27.20
10598;BMP180;5346;48.766;8.674;2022-07-23T10:18:30;94424.00;;;26.90
10598;BMP180;5346;48.766;8.674;2022-07-23T10:20:59;94435.00;;;26.60
10598;BMP180;5346;48.766;8.674;2022-07-23T10:32:05;94434.00;;;27.70
10598;BMP180;5346;48.766;8.674;2022-07-23T10:34:55;94437.00;;;27.30
10598;BMP180;5346;48.766;8.674;2022-07-23T10:37:35;94434.00;;;27.50
10598;BMP180;5346;48.766;8.674;2022-07-23T10:40:22;94433.00;;;28.20
10598;BMP180;5346;48.766;8.674;2022-07-23T10:42:53;94432.00;;;28.40
10598;BMP180;5346;48.766;8.674;2022-07-23T10:45:32;94414.00;;;28.20
10598;BMP180;5346;48.766;8.674;2022-07-23T10:48:13;94432.00;;;28.30
10598;BMP180;5346;48.766;8.674;2022-07-23T10:51:11;94426.00;;;27.90
10598;BMP180;5346;48.766;8.674;2022-07-23T10:53:56;94428.00;;;27.30
10598;BMP180;5346;48.766;8.674;2022-07-23T10:57:11;94432.00;;;28.00
10598;BMP180;5346;48.766;8.674;2022-07-23T11:02:57;94438.00;;;26.90
10598;BMP180;5346;48.766;8.674;2022-07-23T11:05:40;94446.00;;;26.90
10598;BMP180;5346;48.766;8.674;2022-07-23T11:08:21;94438.00;;;26.60
10598;BMP180;5346;48.766;8.674;2022-07-23T11:24:12;94421.00;;;28.20
10598;BMP180;5346;48.766;8.674;2022-07-23T11:26:50;94421.00;;;28.90
10598;BMP180;5346;48.766;8.674;2022-07-23T11:32:34;94422.00;;;29.00
10598;BMP180;5346;48.766;8.674;2022-07-23T11:35:27;94426.00;;;29.60
10598;BMP180;5346;48.766;8.674;2022-07-23T11:38:21;94416.00;;;29.20
10598;BMP180;5346;48.766;8.674;2022-07-23T11:40:53;94420.00;;;29.00
10598;BMP180;5346;48.766;8.674;2022-07-23T11:43:28;94427.00;;;28.40
10598;BMP180;5346;48.766;8.674;2022-07-23T11:46:00;94445.00;;;28.50
10598;BMP180;5346;48.766;8.674;2022-07-23T11:48:30;94433.00;;;28.60
10598;BMP180;5346;48.766;8.674;2022-07-23T11:51:07;94426.00;;;29.00
10598;BMP180;5346;48.766;8.674;2022-07-23T11:53:35;94425.00;;;28.80
10598;BMP180;5346;48.766;8.674;2022-07-23T11:56:12;94423.00;;;28.40
10598;BMP180;5346;48.766;8.674;2022-07-23T11:58:55;94425.00;;;28.30
10598;BMP180;5346;48.766;8.674;2022-07-23T12:01:28;94438.00;;;28.10
10598;BMP180;5346;48.766;8.674;2022-07-23T12:04:09;94432.00;;;27.70
10598;BMP180;5346;48.766;8.674;2022-07-23T12:06:40;94441.00;;;27.80
10598;BMP180;5346;48.766;8.674;2022-07-23T12:09:14;94434.00;;;27.40
10598;BMP180;5346;48.766;8.674;2022-07-23T12:12:02;94426.00;;;27.60
10598;BMP180;5346;48.766;8.674;2022-07-23T12:14:48;94429.00;;;27.90
10598;BMP180;5346;48.766;8.674;2022-07-23T12:17:16;94436.00;;;27.80
10598;BMP180;5346;48.766;8.674;2022-07-23T12:19:50;94437.00;;;27.80
10598;BMP180;5346;48.766;8.674;2022-07-23T12:22:18;94432.00;;;27.60
10598;BMP180;5346;48.766;8.674;2022-07-23T12:25:00;94428.00;;;27.70
10598;BMP180;5346;48.766;8.674;2022-07-23T12:27:36;94426.00;;;27.80
10598;BMP180;5346;48.766;8.674;2022-07-23T12:30:25;94432.00;;;27.60
10598;BMP180;5346;48.766;8.674;2022-07-23T12:33:02;94424.00;;;27.50
10598;BMP180;5346;48.766;8.674;2022-07-23T12:38:14;94432.00;;;27.20
10598;BMP180;5346;48.766;8.674;2022-07-23T12:41:11;94432.00;;;26.80
10598;BMP180;5346;48.766;8.674;2022-07-23T12:43:46;94426.00;;;26.70
10598;BMP180;5346;48.766;8.674;2022-07-23T12:46:21;94426.00;;;26.70
10598;BMP180;5346;48.766;8.674;2022-07-23T12:48:55;94429.00;;;26.80
10598;BMP180;5346;48.766;8.674;2022-07-23T12:51:26;94432.00;;;26.70
10598;BMP180;5346;48.766;8.674;2022-07-23T12:56:40;94432.00;;;27.40
10598;BMP180;5346;48.766;8.674;2022-07-23T12:59:10;94440.00;;;26.90
10598;BMP180;5346;48.766;8.674;2022-07-23T13:01:54;94436.00;;;27.00
10598;BMP180;5346;48.766;8.674;2022-07-23T13:04:25;94422.00;;;27.30
10598;BMP180;5346;48.766;8.674;2022-07-23T13:07:14;94442.00;;;27.40
10598;BMP180;5346;48.766;8.674;2022-07-23T13:09:42;94434.00;;;27.40
10598;BMP180;5346;48.766;8.674;2022-07-23T13:12:17;94426.00;;;27.50
10598;BMP180;5346;48.766;8.674;2022-07-23T13:14:45;94428.00;;;27.30
10598;BMP180;5346;48.766;8.674;2022-07-23T13:17:13;94427.00;;;27.30
10598;BMP180;5346;48.766;8.674;2022-07-23T13:19:48;94422.00;;;28.20
10598;BMP180;5346;48.766;8.674;2022-07-23T13:22:17;94419.00;;;28.60
10598;BMP180;5346;48.766;8.674;2022-07-23T13:24:45;94437.00;;;28.30
10598;BMP180;5346;48.766;8.674;2022-07-23T13:27:19;94437.00;;;28.00
10598;BMP180;5346;48.766;8.674;2022-07-23T13:29:47;94435.00;;;27.70
10598;BMP180;5346;48.766;8.674;2022-07-23T13:32:15;94427.00;;;28.30
10598;BMP180;5346;48.766;8.674;2022-07-23T13:34:50;94437.00;;;28.10
10598;BMP180;5346;48.766;8.674;2022-07-23T13:37:17;94434.00;;;28.20
10598;BMP180;5346;48.766;8.674;2022-07-23T13:39:46;94440.00;;;27.80
10598;BMP180;5346;48.766;8.674;2022-07-23T13:42:20;94429.00;;;28.00
10598;BMP180;5346;48.766;8.674;2022-07-23T13:44:50;94432.00;;;28.30
10598;BMP180;5346;48.766;8.674;2022-07-23T13:47:18;94423.00;;;28.70
10598;BMP180;5346;48.766;8.674;2022-07-23T13:49:53;94423.00;;;28.40
10598;BMP180;5346;48.766;8.674;2022-07-23T13:52:21;94422.00;;;28.80
10598;BMP180;5346;48.766;8.674;2022-07-23T13:54:49;94425.00;;;28.60
10598;BMP180;5346;48.766;8.674;2022-07-23T13:57:26;94423.00;;;28.20
10598;BMP180;5346;48.766;8.674;2022-07-23T13:59:53;94420.00;;;28.20
10598;BMP180;5346;48.766;8.674;2022-07-23T14:02:31;94423.00;;;28.50
10598;BMP180;5346;48.766;8.674;2022-07-23T14:05:00;94429.00;;;28.60
10598;BMP180;5346;48.766;8.674;2022-07-23T14:07:48;94420.00;;;28.70
10598;BMP180;5346;48.766;8.674;2022-07-23T14:10:24;94432.00;;;28.30
10598;BMP180;5346;48.766;8.674;2022-07-23T14:12:58;94436.00;;;28.30
10598;BMP180;5346;48.766;8.674;2022-07-23T14:15:29;94415.00;;;28.60
10598;BMP180;5346;48.766;8.674;2022-07-23T14:17:57;94418.00;;;28.40
10598;BMP180;5346;48.766;8.674;2022-07-23T14:20:31;94415.00;;;28.90
10598;BMP180;5346;48.766;8.674;2022-07-23T14:23:00;94428.00;;;29.30
10598;BMP180;5346;48.766;8.674;2022-07-23T14:25:34;94416.00;;;28.80
10598;BMP180;5346;48.766;8.674;2022-07-23T14:28:10;94421.00;;;28.50
10598;BMP180;5346;48.766;8.674;2022-07-23T14:30:42;94427.00;;;28.40
10598;BMP180;5346;48.766;8.674;2022-07-23T14:33:17;94437.00;;;28.20
10598;BMP180;5346;48.766;8.674;2022-07-23T14:35:45;94437.00;;;28.20
10598;BMP180;5346;48.766;8.674;2022-07-23T14:38:13;94446.00;;;27.50
10598;BMP180;5346;48.766;8.674;2022-07-23T14:40:47;94438.00;;;27.30
10598;BMP180;5346;48.766;8.674;2022-07-23T14:43:16;94440.00;;;27.30
10598;BMP180;5346;48.766;8.674;2022-07-23T14:45:44;94446.00;;;27.10
10598;BMP180;5346;48.766;8.674;2022-07-23T14:48:19;94452.00;;;26.80
10598;BMP180;5346;48.766;8.674;2022-07-23T14:50:48;94444.00;;;27.00
10598;BMP180;5346;48.766;8.674;2022-07-23T14:53:16;94445.00;;;27.10
10598;BMP180;5346;48.766;8.674;2022-07-23T14:55:52;94455.00;;;27.00
10598;BMP180;5346;48.766;8.674;2022-07-23T14:58:22;94450.00;;;26.70
10598;BMP180;5346;48.766;8.674;2022-07-23T15:00:50;94445.00;;;26.60
10598;BMP180;5346;48.766;8.674;2022-07-23T15:03:24;94451.00;;;26.30
10598;BMP180;5346;48.766;8.674;2022-07-23T15:06:09;94447.00;;;26.50
10598;BMP180;5346;48.766;8.674;2022-07-23T15:08:52;94451.00;;;26.60
10598;BMP180;5346;48.766;8.674;2022-07-23T15:11:20;94438.00;;;26.80
10598;BMP180;5346;48.766;8.674;2022-07-23T15:13:48;94448.00;;;27.00
10598;BMP180;5346;48.766;8.674;2022-07-23T15:16:21;94449.00;;;27.20
10598;BMP180;5346;48.766;8.674;2022-07-23T15:18:51;94452.00;;;26.80
10598;BMP180;5346;48.766;8.674;2022-07-23T15:21:19;94452.00;;;26.50
10598;BMP180;5346;48.766;8.674;2022-07-23T15:23:53;94462.00;;;26.40
10598;BMP180;5346;48.766;8.674;2022-07-23T15:26:23;94455.00;;;26.20